createdAt,value
2022-12-18T00:04:38.269Z,99013.25
2022-12-18T00:09:40.639Z,99003.63
2022-12-18T00:14:41.958Z,98990.28
2022-12-18T00:19:43.237Z,99004.28
2022-12-18T00:24:44.546Z,98999.38
2022-12-18T00:29:45.922Z,99014.94
2022-12-18T00:34:47.232Z,99007.13
2022-12-18T00:39:48.540Z,99008.94
2022-12-18T00:44:49.794Z,99003.88
2022-12-18T00:49:51.057Z,99011.44
2022-12-18T00:54:52.313Z,99014.97
2022-12-18T00:59:53.594Z,98999.03
2022-12-18T01:04:54.893Z,98981.59
2022-12-18T01:09:56.158Z,98988.38
2022-12-18T01:14:57.393Z,98995.34
2022-12-18T01:19:58.706Z,99012.66
2022-12-18T01:24:59.954Z,99021.28
2022-12-18T01:30:01.157Z,99022.03
2022-12-18T01:35:02.442Z,99025.34
2022-12-18T01:40:03.645Z,99031.53
2022-12-18T01:45:04.906Z,99043.38
2022-12-18T01:50:06.188Z,99048.00
2022-12-18T01:55:07.437Z,99057.72
2022-12-18T02:00:08.744Z,99063.16
2022-12-18T02:05:10.006Z,99063.38
2022-12-18T02:10:11.207Z,99064.41
2022-12-18T02:15:12.484Z,99074.34
2022-12-18T02:20:14.942Z,99072.44
2022-12-18T02:25:16.193Z,99068.91
2022-12-18T02:30:17.441Z,99055.31
2022-12-18T02:35:18.711Z,99062.81
2022-12-18T02:40:19.920Z,99067.03
2022-12-18T02:45:21.233Z,99073.69
2022-12-18T02:50:22.457Z,99062.38
2022-12-18T02:55:23.699Z,99067.72
2022-12-18T03:00:25.074Z,99060.66
2022-12-18T03:05:26.370Z,99074.25
2022-12-18T03:10:27.901Z,99079.97
2022-12-18T03:15:29.157Z,99070.78
2022-12-18T03:20:31.104Z,99069.50
2022-12-18T03:25:32.350Z,99070.00
2022-12-18T03:30:33.725Z,99068.69
2022-12-18T03:35:35.141Z,99071.06
2022-12-18T03:40:36.478Z,99068.09
2022-12-18T03:45:37.874Z,99068.31
2022-12-18T03:50:39.136Z,99056.56
2022-12-18T03:55:40.416Z,99056.97
2022-12-18T04:00:41.657Z,99062.66
2022-12-18T04:05:42.885Z,99076.34
2022-12-18T04:10:44.128Z,99080.06
2022-12-18T04:15:45.452Z,99081.13
2022-12-18T04:20:47.143Z,99077.84
2022-12-18T04:25:48.379Z,99087.34
2022-12-18T04:30:49.762Z,99077.59
2022-12-18T04:35:51.109Z,99098.38
2022-12-18T04:40:52.396Z,99099.19
2022-12-18T04:45:53.657Z,99089.38
2022-12-18T04:50:54.920Z,99104.00
2022-12-18T04:55:56.256Z,99098.88
2022-12-18T05:00:57.756Z,99100.28
2022-12-18T05:05:58.996Z,99098.03
2022-12-18T05:11:00.450Z,99104.38
2022-12-18T05:16:04.124Z,99108.00
2022-12-18T05:21:05.672Z,99114.81
2022-12-18T05:26:07.109Z,99117.13
2022-12-18T05:31:08.417Z,99122.28
2022-12-18T05:36:09.689Z,99128.25
2022-12-18T05:41:10.983Z,99122.19
2022-12-18T05:46:12.240Z,99135.69
2022-12-18T05:51:13.512Z,99134.19
2022-12-18T05:56:15.566Z,99134.25
2022-12-18T06:01:16.907Z,99153.78
2022-12-18T06:06:18.209Z,99151.16
2022-12-18T06:11:19.441Z,99152.25
2022-12-18T06:16:20.827Z,99144.66
2022-12-18T06:21:22.219Z,99134.47
2022-12-18T06:26:27.990Z,99142.16
2022-12-18T06:31:29.742Z,99154.09
2022-12-18T06:36:32.036Z,99155.13
2022-12-18T06:41:33.346Z,99157.78
2022-12-18T06:46:34.631Z,99159.22
2022-12-18T06:51:35.848Z,99173.50
2022-12-18T06:56:37.044Z,99178.59
2022-12-18T07:01:38.449Z,99198.13
2022-12-18T07:06:39.823Z,99199.84
2022-12-18T07:11:41.195Z,99205.97
2022-12-18T07:16:42.435Z,99201.31
2022-12-18T07:21:43.656Z,99203.38
2022-12-18T07:26:44.922Z,99198.81
2022-12-18T07:31:46.226Z,99191.78
2022-12-18T07:36:47.498Z,99175.13
2022-12-18T07:42:08.679Z,99177.56
2022-12-18T07:47:12.170Z,99181.88
2022-12-18T07:52:13.707Z,99187.34
2022-12-18T07:57:41.375Z,99189.47
2022-12-18T08:02:36.237Z,99200.66
2022-12-18T08:07:37.496Z,99210.75
2022-12-18T08:12:38.736Z,99209.06
2022-12-18T08:17:39.978Z,99226.78
2022-12-18T08:22:41.318Z,99223.22
2022-12-18T08:27:42.662Z,99236.13
2022-12-18T08:32:43.876Z,99240.16
2022-12-18T08:37:45.386Z,99244.25
2022-12-18T08:43:07.264Z,99248.22
2022-12-18T08:48:08.483Z,99249.53
2022-12-18T08:53:10.172Z,99240.94
2022-12-18T08:58:11.473Z,99249.53
2022-12-18T09:03:12.811Z,99248.63
2022-12-18T09:08:14.316Z,99247.44
2022-12-18T09:13:16.441Z,99235.66
2022-12-18T09:18:17.905Z,99231.91
2022-12-18T09:23:19.140Z,99239.72
2022-12-18T09:28:20.490Z,99240.53
2022-12-18T09:33:21.904Z,99232.00
2022-12-18T09:38:24.392Z,99225.84
2022-12-18T09:43:33.930Z,99229.13
2022-12-18T09:48:35.188Z,99217.38
2022-12-18T09:53:36.450Z,99210.81
2022-12-18T09:58:38.293Z,99206.81
2022-12-18T10:03:39.705Z,99202.44
2022-12-18T10:08:41.320Z,99198.19
2022-12-18T10:13:42.829Z,99192.22
2022-12-18T10:18:44.206Z,99199.31
2022-12-18T10:23:48.331Z,99196.94
2022-12-18T10:28:49.911Z,99190.00
2022-12-18T10:33:51.870Z,99184.28
2022-12-18T10:38:53.107Z,99185.69
2022-12-18T10:43:54.338Z,99165.91
2022-12-18T10:48:55.730Z,99155.59
2022-12-18T10:53:56.981Z,99152.28
2022-12-18T10:58:58.229Z,99153.75
2022-12-18T11:04:02.381Z,99160.88
2022-12-18T11:09:12.317Z,99155.91
2022-12-18T11:14:16.841Z,99166.81
2022-12-18T11:19:18.341Z,99171.28
2022-12-18T11:24:19.827Z,99180.50
2022-12-18T11:29:22.996Z,99173.03
2022-12-18T11:34:29.513Z,99167.53
2022-12-18T11:39:31.348Z,99158.22
2022-12-18T11:44:32.627Z,99165.44
2022-12-18T11:49:34.775Z,99158.84
2022-12-18T11:54:36.007Z,99151.69
2022-12-18T11:59:37.394Z,99155.66
2022-12-18T12:04:38.663Z,99158.78
2022-12-18T12:09:41.552Z,99154.50
2022-12-18T12:14:42.780Z,99137.72
2022-12-18T12:19:44.033Z,99126.44
2022-12-18T12:24:45.270Z,99115.56
2022-12-18T12:29:46.518Z,99111.50
2022-12-18T12:34:47.930Z,99095.50
2022-12-18T12:39:49.226Z,99098.13
2022-12-18T12:44:56.030Z,99100.41
2022-12-18T12:49:58.003Z,99101.13
2022-12-18T12:54:59.244Z,99097.63
2022-12-18T13:00:00.861Z,99092.38
2022-12-18T13:05:02.375Z,99087.59
2022-12-18T13:10:03.624Z,99085.97
2022-12-18T13:15:08.825Z,99081.78
2022-12-18T13:20:12.936Z,99091.81
2022-12-18T13:25:15.305Z,99089.00
2022-12-18T13:30:16.591Z,99075.16
2022-12-18T13:35:18.557Z,99077.53
2022-12-18T13:40:22.672Z,99083.81
2022-12-18T13:45:23.897Z,99078.03
2022-12-18T13:50:25.363Z,99072.22
2022-12-18T13:55:27.018Z,99073.50
2022-12-18T14:00:31.414Z,99059.50
2022-12-18T14:05:32.725Z,99072.19
2022-12-18T14:10:47.974Z,99082.38
2022-12-18T14:15:50.901Z,99076.25
2022-12-18T14:20:53.107Z,99077.31
2022-12-18T14:25:54.626Z,99075.56
2022-12-18T14:30:55.885Z,99063.13
2022-12-18T14:35:57.178Z,99058.31
2022-12-18T14:40:58.437Z,99051.06
2022-12-18T14:45:59.674Z,99046.25
2022-12-18T14:51:00.935Z,99038.19
2022-12-18T14:56:02.159Z,99043.50
2022-12-18T15:01:03.496Z,99041.41
2022-12-18T15:06:04.774Z,99050.69
2022-12-18T15:11:11.783Z,99055.41
2022-12-18T15:16:14.403Z,99050.78
2022-12-18T15:21:15.616Z,99048.31
2022-12-18T15:26:16.878Z,99041.47
2022-12-18T15:31:18.318Z,99034.31
2022-12-18T15:36:26.113Z,99026.28
2022-12-18T15:41:28.151Z,99030.25
2022-12-18T15:46:29.566Z,99034.41
2022-12-18T15:51:30.878Z,99032.59
2022-12-18T15:56:50.993Z,99031.75
2022-12-18T16:01:53.941Z,99032.41
2022-12-18T16:07:14.275Z,99029.06
2022-12-18T16:12:16.452Z,99030.47
2022-12-18T16:17:17.778Z,99018.94
2022-12-18T16:22:19.166Z,99021.97
2022-12-18T16:27:20.410Z,99010.84
2022-12-18T16:32:21.643Z,99006.53
2022-12-18T16:37:22.884Z,99000.59
2022-12-18T16:42:24.178Z,99003.47
2022-12-18T16:47:25.405Z,99001.38
2022-12-18T16:52:26.628Z,99005.91
2022-12-18T16:57:27.986Z,99002.59
2022-12-18T17:02:29.461Z,98995.75
2022-12-18T17:07:31.091Z,98997.28
2022-12-18T17:12:32.332Z,98995.94
2022-12-18T17:17:33.600Z,98989.53
2022-12-18T17:22:34.861Z,98994.53
2022-12-18T17:27:36.087Z,98995.03
2022-12-18T17:32:37.354Z,99000.44
2022-12-18T17:37:38.612Z,99008.25
2022-12-18T17:42:39.815Z,99003.94
2022-12-18T17:47:42.084Z,99000.56
2022-12-18T17:52:43.449Z,98993.13
2022-12-18T17:57:44.685Z,99000.50
2022-12-18T18:02:46.384Z,99000.63
2022-12-18T18:07:47.725Z,98991.75
2022-12-18T18:13:07.725Z,98992.00
2022-12-18T18:18:09.011Z,98990.47
2022-12-18T18:23:12.338Z,98997.16
2022-12-18T18:28:14.050Z,98998.13
2022-12-18T18:33:15.353Z,99010.47
2022-12-18T18:38:16.615Z,99004.53
2022-12-18T18:43:17.826Z,98997.00
2022-12-18T18:48:19.073Z,99021.31
2022-12-18T18:53:20.272Z,99019.81
2022-12-18T18:58:21.524Z,99013.00
2022-12-18T19:03:24.947Z,99019.47
2022-12-18T19:08:26.235Z,99018.25
2022-12-18T19:13:27.451Z,99005.38
2022-12-18T19:18:28.945Z,99009.47
2022-12-18T19:23:30.309Z,99004.97
2022-12-18T19:28:31.593Z,98999.63
2022-12-18T19:33:48.184Z,99012.56
2022-12-18T19:38:49.524Z,99024.31
2022-12-18T19:43:50.775Z,99024.00
2022-12-18T19:48:52.064Z,99039.09
2022-12-18T19:53:58.206Z,99039.53
2022-12-18T19:59:00.350Z,99045.28
2022-12-18T20:04:01.889Z,99058.16
2022-12-18T20:09:03.880Z,99053.31
2022-12-18T20:14:06.572Z,99059.53
2022-12-18T20:19:07.864Z,99066.03
2022-12-18T20:24:09.307Z,99065.56
2022-12-18T20:29:10.537Z,99074.50
2022-12-18T20:34:12.069Z,99070.28
2022-12-18T20:39:14.423Z,99067.31
2022-12-18T20:44:23.627Z,99067.44
2022-12-18T20:49:25.452Z,99066.28
2022-12-18T20:54:28.725Z,99062.97
2022-12-18T20:59:30.011Z,99066.53
2022-12-18T21:04:31.373Z,99065.88
2022-12-18T21:09:37.768Z,99054.50
2022-12-18T21:14:39.869Z,99073.53
2022-12-18T21:19:42.349Z,99069.81
2022-12-18T21:24:44.236Z,99059.97
2022-12-18T21:29:45.735Z,99065.25
2022-12-18T21:34:48.339Z,99050.97
2022-12-18T21:39:50.007Z,99042.81
2022-12-18T21:44:51.473Z,99026.63
2022-12-18T21:49:53.015Z,99007.94
2022-12-18T21:54:54.423Z,99000.00
2022-12-18T21:59:55.660Z,99004.97
2022-12-18T22:04:56.883Z,99022.03
2022-12-18T22:09:58.320Z,99008.25
2022-12-18T22:15:00.961Z,99008.94
2022-12-18T22:20:02.217Z,98998.31
2022-12-18T22:25:03.584Z,98987.28
2022-12-18T22:30:04.873Z,98985.22
2022-12-18T22:35:09.488Z,98992.34
2022-12-18T22:40:12.211Z,98972.34
2022-12-18T22:45:15.012Z,98965.81
2022-12-18T22:50:16.272Z,98965.88
2022-12-18T22:55:17.550Z,98959.25
2022-12-18T23:00:23.974Z,98950.00
2022-12-18T23:05:26.078Z,98939.50
2022-12-18T23:10:27.451Z,98932.91
2022-12-18T23:15:28.837Z,98934.25
2022-12-18T23:20:30.568Z,98930.84
2022-12-18T23:25:31.876Z,98936.28
2022-12-18T23:30:33.109Z,98950.47
2022-12-18T23:35:34.451Z,98968.72
2022-12-18T23:40:35.716Z,98945.88
2022-12-18T23:45:36.971Z,98947.84
2022-12-18T23:50:38.190Z,98948.13
2022-12-18T23:55:39.824Z,98960.78
